sensor_id;sensor_type;location;lat;lon;timestamp;P1;durP1;ratioP1;P2;durP2;ratioP2
41059;SDS011;26811;53.160;8.202;2022-08-01T00:04:47;19.10;;;8.18;;
41059;SDS011;26811;53.160;8.202;2022-08-01T00:09:48;24.70;;;8.68;;
41059;SDS011;26811;53.160;8.202;2022-08-01T00:14:49;22.60;;;7.72;;
41059;SDS011;26811;53.160;8.202;2022-08-01T00:19:49;17.45;;;8.20;;
41059;SDS011;26811;53.160;8.202;2022-08-01T00:24:50;19.88;;;8.43;;
41059;SDS011;26811;53.160;8.202;2022-08-01T00:29:50;18.40;;;8.70;;
41059;SDS011;26811;53.160;8.202;2022-08-01T00:34:51;21.73;;;9.30;;
41059;SDS011;26811;53.160;8.202;2022-08-01T00:39:51;25.95;;;9.52;;
41059;SDS011;26811;53.160;8.202;2022-08-01T00:44:52;21.75;;;9.15;;
41059;SDS011;26811;53.160;8.202;2022-08-01T00:49:52;23.05;;;10.25;;
41059;SDS011;26811;53.160;8.202;2022-08-01T00:54:53;31.40;;;10.98;;
41059;SDS011;26811;53.160;8.202;2022-08-01T00:59:54;25.65;;;11.23;;
41059;SDS011;26811;53.160;8.202;2022-08-01T01:04:54;28.75;;;11.60;;
41059;SDS011;26811;53.160;8.202;2022-08-01T01:10:00;25.20;;;11.57;;
41059;SDS011;26811;53.160;8.202;2022-08-01T01:15:30;27.88;;;12.50;;
41059;SDS011;26811;53.160;8.202;2022-08-01T01:20:45;26.92;;;11.43;;
41059;SDS011;26811;53.160;8.202;2022-08-01T01:31:12;18.23;;;8.98;;
41059;SDS011;26811;53.160;8.202;2022-08-01T01:36:14;19.05;;;9.85;;
41059;SDS011;26811;53.160;8.202;2022-08-01T01:41:17;23.10;;;9.43;;
41059;SDS011;26811;53.160;8.202;2022-08-01T01:46:21;18.42;;;10.40;;
41059;SDS011;26811;53.160;8.202;2022-08-01T01:51:24;26.33;;;9.70;;
41059;SDS011;26811;53.160;8.202;2022-08-01T01:56:27;21.98;;;10.52;;
41059;SDS011;26811;53.160;8.202;2022-08-01T02:06:32;28.98;;;10.85;;
41059;SDS011;26811;53.160;8.202;2022-08-01T02:11:34;22.17;;;10.98;;
41059;SDS011;26811;53.160;8.202;2022-08-01T02:16:37;26.08;;;12.15;;
41059;SDS011;26811;53.160;8.202;2022-08-01T02:21:45;20.25;;;10.15;;
41059;SDS011;26811;53.160;8.202;2022-08-01T02:26:49;15.57;;;8.82;;
41059;SDS011;26811;53.160;8.202;2022-08-01T02:31:53;13.73;;;7.78;;
41059;SDS011;26811;53.160;8.202;2022-08-01T02:36:54;10.73;;;7.55;;
41059;SDS011;26811;53.160;8.202;2022-08-01T02:41:59;14.80;;;6.55;;
41059;SDS011;26811;53.160;8.202;2022-08-01T02:47:03;11.98;;;6.95;;
41059;SDS011;26811;53.160;8.202;2022-08-01T02:52:08;12.63;;;6.88;;
41059;SDS011;26811;53.160;8.202;2022-08-01T02:57:11;14.48;;;6.95;;
41059;SDS011;26811;53.160;8.202;2022-08-01T03:02:13;20.70;;;7.30;;
41059;SDS011;26811;53.160;8.202;2022-08-01T03:07:15;13.80;;;6.82;;
41059;SDS011;26811;53.160;8.202;2022-08-01T03:12:17;16.90;;;7.20;;
41059;SDS011;26811;53.160;8.202;2022-08-01T03:17:20;21.90;;;8.20;;
41059;SDS011;26811;53.160;8.202;2022-08-01T03:22:23;23.42;;;8.85;;
41059;SDS011;26811;53.160;8.202;2022-08-01T03:27:25;18.58;;;9.10;;
41059;SDS011;26811;53.160;8.202;2022-08-01T03:32:26;20.20;;;9.43;;
41059;SDS011;26811;53.160;8.202;2022-08-01T03:37:34;19.60;;;9.37;;
41059;SDS011;26811;53.160;8.202;2022-08-01T03:42:45;25.20;;;9.13;;
41059;SDS011;26811;53.160;8.202;2022-08-01T03:47:50;15.00;;;8.75;;
41059;SDS011;26811;53.160;8.202;2022-08-01T03:52:54;13.05;;;7.43;;
41059;SDS011;26811;53.160;8.202;2022-08-01T03:57:58;11.13;;;6.68;;
41059;SDS011;26811;53.160;8.202;2022-08-01T04:03:00;13.70;;;6.53;;
41059;SDS011;26811;53.160;8.202;2022-08-01T04:08:01;13.18;;;6.65;;
41059;SDS011;26811;53.160;8.202;2022-08-01T04:13:02;14.82;;;6.80;;
41059;SDS011;26811;53.160;8.202;2022-08-01T04:18:03;13.40;;;4.85;;
41059;SDS011;26811;53.160;8.202;2022-08-01T04:23:03;18.70;;;5.43;;
41059;SDS011;26811;53.160;8.202;2022-08-01T04:28:04;9.82;;;4.40;;
41059;SDS011;26811;53.160;8.202;2022-08-01T04:33:07;13.88;;;5.10;;
41059;SDS011;26811;53.160;8.202;2022-08-01T04:38:09;13.73;;;4.93;;
41059;SDS011;26811;53.160;8.202;2022-08-01T04:43:12;16.02;;;4.80;;
41059;SDS011;26811;53.160;8.202;2022-08-01T04:48:15;16.60;;;5.72;;
41059;SDS011;26811;53.160;8.202;2022-08-01T04:53:19;24.75;;;6.70;;
41059;SDS011;26811;53.160;8.202;2022-08-01T04:58:21;22.05;;;7.00;;
41059;SDS011;26811;53.160;8.202;2022-08-01T05:03:22;33.53;;;7.68;;
41059;SDS011;26811;53.160;8.202;2022-08-01T05:08:23;25.50;;;6.68;;
41059;SDS011;26811;53.160;8.202;2022-08-01T05:13:23;31.08;;;7.35;;
41059;SDS011;26811;53.160;8.202;2022-08-01T05:18:24;36.40;;;6.65;;
41059;SDS011;26811;53.160;8.202;2022-08-01T05:23:24;23.17;;;6.20;;
41059;SDS011;26811;53.160;8.202;2022-08-01T05:28:25;25.02;;;7.07;;
41059;SDS011;26811;53.160;8.202;2022-08-01T05:33:25;22.25;;;6.32;;
41059;SDS011;26811;53.160;8.202;2022-08-01T05:38:26;25.58;;;6.72;;
41059;SDS011;26811;53.160;8.202;2022-08-01T05:43:26;35.65;;;7.93;;
41059;SDS011;26811;53.160;8.202;2022-08-01T05:48:27;28.80;;;8.18;;
41059;SDS011;26811;53.160;8.202;2022-08-01T05:53:27;38.72;;;7.20;;
41059;SDS011;26811;53.160;8.202;2022-08-01T05:58:28;31.30;;;7.97;;
41059;SDS011;26811;53.160;8.202;2022-08-01T06:03:28;42.63;;;7.57;;
41059;SDS011;26811;53.160;8.202;2022-08-01T06:08:31;38.60;;;8.20;;
41059;SDS011;26811;53.160;8.202;2022-08-01T06:13:31;41.08;;;7.85;;
41059;SDS011;26811;53.160;8.202;2022-08-01T06:18:32;45.50;;;7.80;;
41059;SDS011;26811;53.160;8.202;2022-08-01T06:23:33;42.92;;;7.95;;
41059;SDS011;26811;53.160;8.202;2022-08-01T06:28:33;34.00;;;7.38;;
41059;SDS011;26811;53.160;8.202;2022-08-01T06:33:34;57.45;;;8.63;;
41059;SDS011;26811;53.160;8.202;2022-08-01T06:38:34;36.65;;;7.13;;
41059;SDS011;26811;53.160;8.202;2022-08-01T06:43:35;51.42;;;7.53;;
41059;SDS011;26811;53.160;8.202;2022-08-01T06:48:35;45.05;;;7.32;;
41059;SDS011;26811;53.160;8.202;2022-08-01T06:53:39;37.58;;;7.35;;
41059;SDS011;26811;53.160;8.202;2022-08-01T06:58:39;36.22;;;6.18;;
41059;SDS011;26811;53.160;8.202;2022-08-01T07:03:40;40.03;;;6.05;;
41059;SDS011;26811;53.160;8.202;2022-08-01T07:08:40;40.55;;;6.25;;
41059;SDS011;26811;53.160;8.202;2022-08-01T07:13:41;35.60;;;5.38;;
41059;SDS011;26811;53.160;8.202;2022-08-01T07:18:42;26.42;;;4.57;;
41059;SDS011;26811;53.160;8.202;2022-08-01T07:23:42;39.60;;;5.55;;
41059;SDS011;26811;53.160;8.202;2022-08-01T07:28:43;31.88;;;4.95;;
41059;SDS011;26811;53.160;8.202;2022-08-01T07:33:43;38.63;;;5.17;;
41059;SDS011;26811;53.160;8.202;2022-08-01T07:38:44;34.60;;;4.70;;
41059;SDS011;26811;53.160;8.202;2022-08-01T07:43:45;40.50;;;5.50;;
41059;SDS011;26811;53.160;8.202;2022-08-01T07:53:47;42.75;;;5.40;;
41059;SDS011;26811;53.160;8.202;2022-08-01T07:58:48;45.45;;;6.20;;
41059;SDS011;26811;53.160;8.202;2022-08-01T08:03:48;40.17;;;5.40;;
41059;SDS011;26811;53.160;8.202;2022-08-01T08:08:49;48.00;;;6.20;;
41059;SDS011;26811;53.160;8.202;2022-08-01T08:13:49;47.42;;;5.68;;
41059;SDS011;26811;53.160;8.202;2022-08-01T08:18:50;48.92;;;5.80;;
41059;SDS011;26811;53.160;8.202;2022-08-01T08:23:50;44.67;;;4.95;;
41059;SDS011;26811;53.160;8.202;2022-08-01T08:29:09;33.60;;;5.30;;
41059;SDS011;26811;53.160;8.202;2022-08-01T08:34:10;38.40;;;5.07;;
41059;SDS011;26811;53.160;8.202;2022-08-01T08:39:11;26.83;;;4.60;;
41059;SDS011;26811;53.160;8.202;2022-08-01T08:44:12;40.65;;;5.47;;
41059;SDS011;26811;53.160;8.202;2022-08-01T08:49:15;43.15;;;5.78;;
41059;SDS011;26811;53.160;8.202;2022-08-01T08:54:21;44.70;;;4.75;;
41059;SDS011;26811;53.160;8.202;2022-08-01T08:59:23;35.95;;;4.75;;
41059;SDS011;26811;53.160;8.202;2022-08-01T09:04:25;41.90;;;5.22;;
41059;SDS011;26811;53.160;8.202;2022-08-01T09:09:26;44.33;;;4.70;;
41059;SDS011;26811;53.160;8.202;2022-08-01T09:14:27;37.20;;;5.22;;
41059;SDS011;26811;53.160;8.202;2022-08-01T09:19:34;44.63;;;5.28;;
41059;SDS011;26811;53.160;8.202;2022-08-01T09:24:38;36.78;;;5.10;;
41059;SDS011;26811;53.160;8.202;2022-08-01T09:29:40;28.63;;;4.85;;
41059;SDS011;26811;53.160;8.202;2022-08-01T09:34:40;37.20;;;4.85;;
41059;SDS011;26811;53.160;8.202;2022-08-01T09:39:41;46.25;;;5.30;;
41059;SDS011;26811;53.160;8.202;2022-08-01T09:44:44;48.17;;;4.93;;
41059;SDS011;26811;53.160;8.202;2022-08-01T09:49:44;39.95;;;5.22;;
41059;SDS011;26811;53.160;8.202;2022-08-01T09:54:52;44.33;;;5.05;;
41059;SDS011;26811;53.160;8.202;2022-08-01T10:00:03;35.50;;;4.70;;
41059;SDS011;26811;53.160;8.202;2022-08-01T10:05:05;36.78;;;4.95;;
41059;SDS011;26811;53.160;8.202;2022-08-01T10:10:13;44.33;;;5.75;;
41059;SDS011;26811;53.160;8.202;2022-08-01T10:15:15;33.05;;;4.45;;
41059;SDS011;26811;53.160;8.202;2022-08-01T10:20:18;52.30;;;6.22;;
41059;SDS011;26811;53.160;8.202;2022-08-01T10:25:20;35.15;;;4.75;;
41059;SDS011;26811;53.160;8.202;2022-08-01T10:30:21;30.87;;;4.97;;
41059;SDS011;26811;53.160;8.202;2022-08-01T10:35:22;42.42;;;5.07;;
41059;SDS011;26811;53.160;8.202;2022-08-01T10:40:23;30.15;;;4.43;;
41059;SDS011;26811;53.160;8.202;2022-08-01T10:45:24;40.40;;;5.07;;
41059;SDS011;26811;53.160;8.202;2022-08-01T10:50:30;27.90;;;4.25;;
41059;SDS011;26811;53.160;8.202;2022-08-01T11:06:18;36.53;;;4.43;;
41059;SDS011;26811;53.160;8.202;2022-08-01T11:11:23;35.85;;;5.30;;
41059;SDS011;26811;53.160;8.202;2022-08-01T11:16:25;31.23;;;4.47;;
41059;SDS011;26811;53.160;8.202;2022-08-01T11:32:23;32.42;;;5.00;;
41059;SDS011;26811;53.160;8.202;2022-08-01T11:37:25;31.83;;;4.60;;
41059;SDS011;26811;53.160;8.202;2022-08-01T11:42:26;37.25;;;4.57;;
41059;SDS011;26811;53.160;8.202;2022-08-01T11:52:56;34.63;;;4.85;;
41059;SDS011;26811;53.160;8.202;2022-08-01T12:03:03;29.58;;;4.63;;
41059;SDS011;26811;53.160;8.202;2022-08-01T12:08:05;27.83;;;4.80;;
41059;SDS011;26811;53.160;8.202;2022-08-01T12:13:06;22.23;;;4.30;;
41059;SDS011;26811;53.160;8.202;2022-08-01T12:18:06;28.90;;;4.90;;
41059;SDS011;26811;53.160;8.202;2022-08-01T12:23:08;25.87;;;4.23;;
41059;SDS011;26811;53.160;8.202;2022-08-01T12:28:11;31.38;;;5.13;;
41059;SDS011;26811;53.160;8.202;2022-08-01T12:33:17;33.03;;;4.30;;
41059;SDS011;26811;53.160;8.202;2022-08-01T12:38:21;32.80;;;5.13;;
41059;SDS011;26811;53.160;8.202;2022-08-01T12:43:24;25.80;;;4.55;;
41059;SDS011;26811;53.160;8.202;2022-08-01T12:48:25;26.83;;;4.78;;
41059;SDS011;26811;53.160;8.202;2022-08-01T12:53:27;21.33;;;4.57;;
41059;SDS011;26811;53.160;8.202;2022-08-01T12:58:31;21.13;;;3.88;;
41059;SDS011;26811;53.160;8.202;2022-08-01T13:03:33;30.23;;;4.35;;
41059;SDS011;26811;53.160;8.202;2022-08-01T13:08:34;29.47;;;4.97;;
41059;SDS011;26811;53.160;8.202;2022-08-01T13:13:38;36.07;;;5.57;;
41059;SDS011;26811;53.160;8.202;2022-08-01T13:18:40;36.63;;;5.13;;
41059;SDS011;26811;53.160;8.202;2022-08-01T13:29:06;25.73;;;4.10;;
41059;SDS011;26811;53.160;8.202;2022-08-01T13:34:07;24.00;;;5.03;;
41059;SDS011;26811;53.160;8.202;2022-08-01T13:39:08;19.47;;;4.40;;
41059;SDS011;26811;53.160;8.202;2022-08-01T13:44:28;23.48;;;4.32;;
41059;SDS011;26811;53.160;8.202;2022-08-01T13:49:29;24.67;;;4.88;;
41059;SDS011;26811;53.160;8.202;2022-08-01T13:54:30;23.42;;;4.65;;
41059;SDS011;26811;53.160;8.202;2022-08-01T13:59:31;28.75;;;4.35;;
41059;SDS011;26811;53.160;8.202;2022-08-01T14:04:32;24.33;;;4.70;;
41059;SDS011;26811;53.160;8.202;2022-08-01T14:09:32;28.05;;;4.63;;
41059;SDS011;26811;53.160;8.202;2022-08-01T14:14:33;21.63;;;4.07;;
41059;SDS011;26811;53.160;8.202;2022-08-01T14:19:33;34.33;;;5.28;;
41059;SDS011;26811;53.160;8.202;2022-08-01T14:24:34;27.75;;;4.85;;
41059;SDS011;26811;53.160;8.202;2022-08-01T14:29:34;27.13;;;4.22;;
41059;SDS011;26811;53.160;8.202;2022-08-01T14:34:35;19.05;;;3.95;;
41059;SDS011;26811;53.160;8.202;2022-08-01T14:39:36;22.95;;;4.30;;
41059;SDS011;26811;53.160;8.202;2022-08-01T14:44:37;11.20;;;3.70;;
41059;SDS011;26811;53.160;8.202;2022-08-01T14:49:37;18.15;;;3.55;;
41059;SDS011;26811;53.160;8.202;2022-08-01T14:54:38;24.33;;;3.93;;
41059;SDS011;26811;53.160;8.202;2022-08-01T14:59:38;29.88;;;4.65;;
41059;SDS011;26811;53.160;8.202;2022-08-01T15:04:39;18.33;;;3.80;;
41059;SDS011;26811;53.160;8.202;2022-08-01T15:09:40;21.98;;;5.07;;
41059;SDS011;26811;53.160;8.202;2022-08-01T15:14:40;24.52;;;4.35;;
41059;SDS011;26811;53.160;8.202;2022-08-01T15:19:54;27.33;;;4.60;;
41059;SDS011;26811;53.160;8.202;2022-08-01T15:24:56;23.92;;;4.40;;
41059;SDS011;26811;53.160;8.202;2022-08-01T15:29:58;26.42;;;4.35;;
41059;SDS011;26811;53.160;8.202;2022-08-01T15:35:07;21.35;;;4.38;;
41059;SDS011;26811;53.160;8.202;2022-08-01T15:40:14;28.75;;;4.72;;
41059;SDS011;26811;53.160;8.202;2022-08-01T15:45:16;22.83;;;4.30;;
41059;SDS011;26811;53.160;8.202;2022-08-01T15:50:22;27.00;;;4.72;;
41059;SDS011;26811;53.160;8.202;2022-08-01T15:55:22;22.15;;;4.93;;
41059;SDS011;26811;53.160;8.202;2022-08-01T16:00:24;19.20;;;4.40;;
41059;SDS011;26811;53.160;8.202;2022-08-01T16:05:25;28.45;;;4.88;;
41059;SDS011;26811;53.160;8.202;2022-08-01T16:10:26;22.83;;;4.20;;
41059;SDS011;26811;53.160;8.202;2022-08-01T16:15:27;18.95;;;4.32;;
41059;SDS011;26811;53.160;8.202;2022-08-01T16:20:28;26.65;;;4.50;;
41059;SDS011;26811;53.160;8.202;2022-08-01T16:25:28;28.20;;;4.63;;
41059;SDS011;26811;53.160;8.202;2022-08-01T16:30:29;25.00;;;4.90;;
41059;SDS011;26811;53.160;8.202;2022-08-01T16:35:30;19.95;;;4.38;;
41059;SDS011;26811;53.160;8.202;2022-08-01T16:40:33;25.30;;;4.55;;
41059;SDS011;26811;53.160;8.202;2022-08-01T16:45:34;20.83;;;4.72;;
41059;SDS011;26811;53.160;8.202;2022-08-01T16:50:35;26.70;;;4.88;;
41059;SDS011;26811;53.160;8.202;2022-08-01T16:55:36;29.02;;;5.05;;
41059;SDS011;26811;53.160;8.202;2022-08-01T17:00:36;31.83;;;5.72;;
41059;SDS011;26811;53.160;8.202;2022-08-01T17:05:41;34.88;;;5.60;;
41059;SDS011;26811;53.160;8.202;2022-08-01T17:10:42;28.83;;;5.95;;
41059;SDS011;26811;53.160;8.202;2022-08-01T17:15:43;33.70;;;5.68;;
41059;SDS011;26811;53.160;8.202;2022-08-01T17:20:46;26.83;;;5.32;;
41059;SDS011;26811;53.160;8.202;2022-08-01T17:25:49;30.85;;;5.60;;
41059;SDS011;26811;53.160;8.202;2022-08-01T17:30:49;32.25;;;5.32;;
41059;SDS011;26811;53.160;8.202;2022-08-01T17:35:50;22.95;;;5.03;;
41059;SDS011;26811;53.160;8.202;2022-08-01T17:40:50;27.33;;;5.25;;
41059;SDS011;26811;53.160;8.202;2022-08-01T17:45:51;25.60;;;4.95;;
41059;SDS011;26811;53.160;8.202;2022-08-01T17:50:53;21.00;;;5.20;;
41059;SDS011;26811;53.160;8.202;2022-08-01T17:55:53;27.63;;;5.03;;
41059;SDS011;26811;53.160;8.202;2022-08-01T18:00:57;29.67;;;5.22;;
41059;SDS011;26811;53.160;8.202;2022-08-01T18:05:58;22.13;;;5.35;;
41059;SDS011;26811;53.160;8.202;2022-08-01T18:10:59;16.58;;;5.25;;
41059;SDS011;26811;53.160;8.202;2022-08-01T18:15:59;33.72;;;6.47;;
41059;SDS011;26811;53.160;8.202;2022-08-01T18:21:01;37.80;;;6.80;;
41059;SDS011;26811;53.160;8.202;2022-08-01T18:26:02;33.33;;;5.60;;
41059;SDS011;26811;53.160;8.202;2022-08-01T18:31:06;21.08;;;5.13;;
41059;SDS011;26811;53.160;8.202;2022-08-01T18:36:08;24.63;;;5.13;;
41059;SDS011;26811;53.160;8.202;2022-08-01T18:41:08;26.40;;;5.40;;
41059;SDS011;26811;53.160;8.202;2022-08-01T18:46:11;24.50;;;5.43;;
41059;SDS011;26811;53.160;8.202;2022-08-01T18:51:12;20.42;;;5.22;;
41059;SDS011;26811;53.160;8.202;2022-08-01T18:56:13;29.85;;;5.40;;
41059;SDS011;26811;53.160;8.202;2022-08-01T19:01:13;30.05;;;5.32;;
41059;SDS011;26811;53.160;8.202;2022-08-01T19:06:14;23.17;;;5.68;;
41059;SDS011;26811;53.160;8.202;2022-08-01T19:11:14;22.23;;;5.88;;
41059;SDS011;26811;53.160;8.202;2022-08-01T19:16:15;29.90;;;6.28;;
41059;SDS011;26811;53.160;8.202;2022-08-01T19:21:16;21.45;;;6.13;;
41059;SDS011;26811;53.160;8.202;2022-08-01T19:26:20;27.05;;;5.97;;
41059;SDS011;26811;53.160;8.202;2022-08-01T19:31:25;38.78;;;6.43;;
41059;SDS011;26811;53.160;8.202;2022-08-01T19:36:29;21.63;;;5.88;;
41059;SDS011;26811;53.160;8.202;2022-08-01T19:41:30;21.13;;;6.00;;
41059;SDS011;26811;53.160;8.202;2022-08-01T19:46:31;21.35;;;6.90;;
41059;SDS011;26811;53.160;8.202;2022-08-01T19:51:33;32.80;;;7.43;;
41059;SDS011;26811;53.160;8.202;2022-08-01T19:56:40;34.38;;;6.07;;
41059;SDS011;26811;53.160;8.202;2022-08-01T20:01:44;28.80;;;6.85;;
41059;SDS011;26811;53.160;8.202;2022-08-01T20:06:46;28.65;;;6.78;;
41059;SDS011;26811;53.160;8.202;2022-08-01T20:11:48;23.88;;;7.30;;
41059;SDS011;26811;53.160;8.202;2022-08-01T20:16:51;33.83;;;9.50;;
41059;SDS011;26811;53.160;8.202;2022-08-01T20:21:58;51.22;;;11.18;;
41059;SDS011;26811;53.160;8.202;2022-08-01T20:27:00;36.53;;;9.93;;
41059;SDS011;26811;53.160;8.202;2022-08-01T20:32:04;31.77;;;10.55;;
41059;SDS011;26811;53.160;8.202;2022-08-01T20:37:06;48.03;;;9.63;;
41059;SDS011;26811;53.160;8.202;2022-08-01T20:47:09;30.65;;;9.10;;
41059;SDS011;26811;53.160;8.202;2022-08-01T20:52:10;33.90;;;9.40;;
41059;SDS011;26811;53.160;8.202;2022-08-01T20:57:16;34.97;;;9.10;;
41059;SDS011;26811;53.160;8.202;2022-08-01T21:07:49;35.05;;;9.63;;
41059;SDS011;26811;53.160;8.202;2022-08-01T21:13:02;37.65;;;10.10;;
41059;SDS011;26811;53.160;8.202;2022-08-01T21:18:21;38.03;;;10.57;;
41059;SDS011;26811;53.160;8.202;2022-08-01T21:23:35;43.65;;;10.88;;
41059;SDS011;26811;53.160;8.202;2022-08-01T21:28:46;33.67;;;10.77;;
41059;SDS011;26811;53.160;8.202;2022-08-01T21:33:47;38.30;;;10.43;;
41059;SDS011;26811;53.160;8.202;2022-08-01T21:43:57;36.30;;;10.35;;
41059;SDS011;26811;53.160;8.202;2022-08-01T21:49:00;56.17;;;11.65;;
41059;SDS011;26811;53.160;8.202;2022-08-01T21:54:02;38.65;;;11.52;;
41059;SDS011;26811;53.160;8.202;2022-08-01T22:04:20;57.42;;;13.85;;
41059;SDS011;26811;53.160;8.202;2022-08-01T22:14:43;48.42;;;14.40;;
41059;SDS011;26811;53.160;8.202;2022-08-01T22:19:48;55.25;;;15.63;;
41059;SDS011;26811;53.160;8.202;2022-08-01T22:24:51;40.55;;;14.07;;
41059;SDS011;26811;53.160;8.202;2022-08-01T22:29:53;47.08;;;14.00;;
41059;SDS011;26811;53.160;8.202;2022-08-01T22:34:59;49.30;;;14.82;;
41059;SDS011;26811;53.160;8.202;2022-08-01T22:40:02;60.37;;;15.93;;
41059;SDS011;26811;53.160;8.202;2022-08-01T22:50:26;59.10;;;15.57;;
41059;SDS011;26811;53.160;8.202;2022-08-01T22:55:32;46.10;;;14.38;;
41059;SDS011;26811;53.160;8.202;2022-08-01T23:00:35;40.08;;;14.80;;
41059;SDS011;26811;53.160;8.202;2022-08-01T23:05:40;50.33;;;16.70;;
41059;SDS011;26811;53.160;8.202;2022-08-01T23:10:44;55.97;;;19.73;;
41059;SDS011;26811;53.160;8.202;2022-08-01T23:15:46;54.97;;;16.48;;
41059;SDS011;26811;53.160;8.202;2022-08-01T23:20:48;61.05;;;16.27;;
41059;SDS011;26811;53.160;8.202;2022-08-01T23:25:49;47.33;;;14.93;;
41059;SDS011;26811;53.160;8.202;2022-08-01T23:30:52;56.33;;;15.80;;
41059;SDS011;26811;53.160;8.202;2022-08-01T23:35:53;43.00;;;14.93;;
41059;SDS011;26811;53.160;8.202;2022-08-01T23:40:54;48.38;;;15.20;;
41059;SDS011;26811;53.160;8.202;2022-08-01T23:45:54;41.78;;;15.30;;
41059;SDS011;26811;53.160;8.202;2022-08-01T23:50:55;51.08;;;16.23;;
41059;SDS011;26811;53.160;8.202;2022-08-01T23:55:55;50.90;;;17.55;;
